Time;durP1;ratioP1;P1;durP2;ratioP2;P2;SDS_P1;SDS_P2;PMS_P1;PMS_P2;Temp;Humidity;BMP_temperature;BMP_pressure;BME280_temperature;BME280_humidity;BME280_pressure;Samples;Min_cycle;Max_cycle;Signal;HPM_P1;HPM_P2
2021/05/10 00:01:28;;;;;;;11.35;1.98;;;10.40;99.90;;;;;;6204978;23;20008;-90
2021/05/10 00:03:54;;;;;;;9.85;1.90;;;10.40;99.90;;;;;;6199454;23;20004;-90
2021/05/10 00:06:20;;;;;;;7.85;2.38;;;10.40;99.90;;;;;;6244450;23;20047;-89
2021/05/10 00:08:47;;;;;;;6.57;1.60;;;10.40;99.90;;;;;;6219540;23;20007;-91
2021/05/10 00:11:13;;;;;;;11.80;2.08;;;10.40;99.90;;;;;;6249402;23;20067;-90
2021/05/10 00:13:43;;;;;;;11.88;2.70;;;10.40;99.90;;;;;;6223957;23;20012;-91
2021/05/10 00:16:09;;;;;;;11.40;2.77;;;10.40;99.90;;;;;;6249408;23;20013;-91
2021/05/10 00:18:37;;;;;;;9.68;2.50;;;10.30;99.90;;;;;;6249256;23;20242;-90
2021/05/10 00:21:10;;;;;;;8.32;2.15;;;10.30;99.90;;;;;;6232968;23;20005;-89
2021/05/10 00:23:38;;;;;;;6.85;1.80;;;10.20;99.90;;;;;;6255114;23;20008;-89
2021/05/10 00:26:04;;;;;;;5.30;1.77;;;10.20;99.90;;;;;;6254512;23;20034;-89
2021/05/10 00:28:31;;;;;;;16.20;2.65;;;10.20;99.90;;;;;;6253161;23;20013;-89
2021/05/10 00:30:57;;;;;;;12.73;2.45;;;10.10;99.90;;;;;;6202670;23;20012;-89
2021/05/10 00:33:23;;;;;;;13.25;2.70;;;10.10;99.90;;;;;;6254489;23;20042;-89
2021/05/10 00:35:49;;;;;;;15.90;2.70;;;10.10;99.90;;;;;;6224113;23;20005;-89
2021/05/10 00:38:15;;;;;;;5.45;2.25;;;10.10;99.90;;;;;;6246142;23;20008;-87
2021/05/10 00:40:42;;;;;;;11.50;2.65;;;10.10;99.90;;;;;;6248089;23;20081;-89
2021/05/10 00:43:08;;;;;;;8.15;1.88;;;10.10;99.90;;;;;;6241939;22;20087;-89
2021/05/10 00:45:34;;;;;;;13.05;2.55;;;10.10;99.90;;;;;;6242977;23;20008;-91
2021/05/10 00:48:02;;;;;;;8.70;2.53;;;10.10;99.90;;;;;;6243994;23;20009;-89
2021/05/10 00:50:36;;;;;;;13.15;2.40;;;10.10;99.90;;;;;;6223349;23;20008;-90
2021/05/10 00:53:05;;;;;;;9.05;2.20;;;10.10;99.90;;;;;;6226336;23;20016;-89
2021/05/10 00:55:35;;;;;;;8.02;2.30;;;10.10;99.90;;;;;;6222878;23;20009;-90
2021/05/10 00:58:04;;;;;;;9.98;2.08;;;10.10;99.90;;;;;;6196383;23;20046;-88
2021/05/10 01:00:34;;;;;;;9.77;2.00;;;10.10;99.90;;;;;;6223524;23;20008;-89
2021/05/10 01:03:01;;;;;;;6.10;1.65;;;10.10;99.90;;;;;;6223575;23;20008;-91
2021/05/10 01:05:27;;;;;;;13.70;2.63;;;10.00;99.90;;;;;;6220852;23;20096;-89
2021/05/10 01:07:53;;;;;;;15.68;2.88;;;10.10;99.90;;;;;;6216933;23;20027;-90
2021/05/10 01:10:20;;;;;;;8.90;2.00;;;10.00;99.90;;;;;;6216933;23;20448;-89
2021/05/10 01:12:48;;;;;;;10.10;2.40;;;10.00;99.90;;;;;;6216090;23;20012;-90
2021/05/10 01:15:22;;;;;;;10.88;2.25;;;10.00;99.90;;;;;;6216454;23;20314;-90
2021/05/10 01:17:51;;;;;;;12.70;2.58;;;10.00;99.90;;;;;;6216369;23;20491;-90
2021/05/10 01:20:18;;;;;;;7.80;2.28;;;10.00;99.90;;;;;;6241364;23;20500;-90
2021/05/10 01:23:01;;;;;;;11.48;2.78;;;10.00;99.90;;;;;;6216080;23;20040;-89
2021/05/10 01:25:29;;;;;;;8.65;2.03;;;10.00;99.90;;;;;;6241299;23;20036;-89
2021/05/10 01:27:56;;;;;;;7.57;2.50;;;10.00;99.90;;;;;;6216198;23;20103;-90
2021/05/10 01:30:28;;;;;;;10.88;2.78;;;10.00;99.90;;;;;;6216031;23;20008;-89
2021/05/10 01:32:55;;;;;;;8.63;2.35;;;10.00;99.90;;;;;;6216144;23;20012;-90
2021/05/10 01:35:30;;;;;;;10.05;2.72;;;10.00;99.90;;;;;;6217244;23;20011;-91
2021/05/10 01:37:57;;;;;;;6.28;2.58;;;10.00;99.90;;;;;;6215611;23;20015;-90
2021/05/10 01:40:24;;;;;;;14.15;3.42;;;10.00;99.90;;;;;;6216111;23;20000;-90
2021/05/10 01:42:50;;;;;;;13.80;3.55;;;10.00;99.90;;;;;;6240917;22;20036;-90
2021/05/10 01:45:15;;;;;;;6.13;2.13;;;10.00;99.90;;;;;;6241548;23;20019;-89
2021/05/10 01:47:42;;;;;;;9.57;2.78;;;9.90;99.90;;;;;;6243024;23;20079;-91
2021/05/10 01:50:21;;;;;;;11.70;3.35;;;9.90;99.90;;;;;;6253041;23;20004;-90
2021/05/10 01:52:48;;;;;;;12.07;2.78;;;9.90;99.90;;;;;;6253052;23;20012;-90
2021/05/10 01:55:16;;;;;;;7.85;2.15;;;9.90;99.90;;;;;;6226421;23;20018;-90
2021/05/10 01:57:47;;;;;;;10.85;2.85;;;9.90;99.90;;;;;;6226235;23;20011;-90
2021/05/10 02:00:16;;;;;;;9.10;3.00;;;9.90;99.90;;;;;;6225877;23;20009;-88
2021/05/10 02:02:43;;;;;;;12.60;2.22;;;9.90;99.90;;;;;;6176235;23;20559;-90
2021/05/10 02:05:20;;;;;;;11.57;2.88;;;9.90;99.90;;;;;;6240870;23;20424;-90
2021/05/10 02:07:52;;;;;;;12.52;3.28;;;9.90;99.90;;;;;;6214996;23;20008;-90
2021/05/10 02:10:23;;;;;;;7.93;2.53;;;9.90;99.90;;;;;;6214584;23;20008;-88
2021/05/10 02:12:59;;;;;;;14.13;2.40;;;9.90;99.90;;;;;;6215187;23;20004;-90
2021/05/10 02:15:29;;;;;;;16.75;3.25;;;9.90;99.90;;;;;;6215183;23;20012;-90
2021/05/10 02:17:55;;;;;;;5.72;1.88;;;9.90;99.90;;;;;;6216800;23;20013;-91
2021/05/10 02:20:23;;;;;;;12.20;3.40;;;9.90;99.90;;;;;;6202287;23;20032;-89
2021/05/10 02:22:59;;;;;;;19.67;5.57;;;9.90;99.90;;;;;;6225081;23;20013;-89
2021/05/10 02:25:37;;;;;;;14.30;3.20;;;9.90;99.90;;;;;;6226247;23;20010;-90
2021/05/10 02:28:05;;;;;;;8.52;2.10;;;9.90;99.90;;;;;;6226926;23;20024;-91
2021/05/10 02:30:36;;;;;;;7.93;2.15;;;9.90;99.90;;;;;;6226338;23;20012;-90
2021/05/10 02:33:05;;;;;;;15.40;3.22;;;9.90;99.90;;;;;;6223004;23;20016;-90
2021/05/10 02:35:32;;;;;;;10.75;3.35;;;9.90;99.90;;;;;;6214911;23;20340;-90
2021/05/10 02:37:57;;;;;;;9.93;3.22;;;10.00;99.90;;;;;;6215248;23;20009;-91
2021/05/10 02:40:23;;;;;;;16.17;3.38;;;10.00;99.90;;;;;;6215045;23;20004;-90
2021/05/10 02:42:50;;;;;;;14.50;3.88;;;10.00;99.90;;;;;;6214553;23;20016;-90
2021/05/10 02:45:16;;;;;;;14.73;3.88;;;10.00;99.90;;;;;;6214747;23;20004;-89
2021/05/10 02:47:43;;;;;;;21.98;5.05;;;10.00;99.90;;;;;;6216556;23;20005;-90
2021/05/10 02:50:14;;;;;;;13.65;3.53;;;9.90;99.90;;;;;;6220777;23;20395;-91
2021/05/10 02:52:40;;;;;;;14.77;3.13;;;9.90;99.90;;;;;;6223634;23;20008;-89
2021/05/10 02:55:08;;;;;;;17.55;3.78;;;9.90;99.90;;;;;;6224905;23;20012;-89
2021/05/10 02:57:35;;;;;;;19.17;4.45;;;9.90;99.90;;;;;;6224140;23;20008;-89
2021/05/10 03:00:01;;;;;;;16.50;4.45;;;9.90;99.90;;;;;;6224387;23;20000;-90
2021/05/10 03:02:27;;;;;;;8.85;2.47;;;9.90;99.90;;;;;;6223686;23;20016;-90
2021/05/10 03:04:53;;;;;;;16.25;3.15;;;9.90;99.90;;;;;;6216115;23;20015;-90
2021/05/10 03:07:22;;;;;;;18.00;4.97;;;9.90;99.90;;;;;;6240033;23;20011;-89
2021/05/10 03:09:47;;;;;;;17.80;5.00;;;9.90;99.90;;;;;;6239782;23;20036;-90
2021/05/10 03:12:13;;;;;;;12.48;4.00;;;9.80;99.90;;;;;;6239799;23;20004;-90
2021/05/10 03:14:42;;;;;;;16.63;4.97;;;9.80;99.90;;;;;;6240610;23;20020;-90
2021/05/10 03:17:07;;;;;;;14.02;3.75;;;9.80;99.90;;;;;;6240370;23;20059;-91
2021/05/10 03:19:33;;;;;;;17.60;5.03;;;9.80;99.90;;;;;;6239765;23;20005;-91
2021/05/10 03:21:59;;;;;;;11.10;3.00;;;9.70;99.90;;;;;;6241716;23;20000;-90
2021/05/10 03:24:26;;;;;;;22.42;4.05;;;9.70;99.90;;;;;;6245106;23;20001;-89
2021/05/10 03:26:51;;;;;;;16.10;3.65;;;9.70;99.90;;;;;;6242440;23;20020;-89
2021/05/10 03:29:17;;;;;;;13.10;3.45;;;9.60;99.90;;;;;;6242184;23;20001;-89
2021/05/10 03:31:43;;;;;;;17.30;4.70;;;9.60;99.90;;;;;;6240042;23;20019;-89
2021/05/10 03:34:09;;;;;;;14.02;3.58;;;9.60;99.90;;;;;;6239525;23;20347;-89
2021/05/10 03:36:34;;;;;;;19.83;3.97;;;9.60;99.90;;;;;;6239791;23;20464;-91
2021/05/10 03:39:04;;;;;;;12.88;3.42;;;9.60;99.90;;;;;;6239613;23;20059;-90
2021/05/10 03:41:30;;;;;;;10.05;2.80;;;9.60;99.90;;;;;;6214363;23;20078;-89
2021/05/10 03:43:59;;;;;;;16.23;3.78;;;9.60;99.90;;;;;;6239093;22;20024;-89
2021/05/10 03:46:25;;;;;;;20.48;3.55;;;9.60;99.90;;;;;;6239247;23;20000;-89
2021/05/10 03:48:51;;;;;;;14.52;3.50;;;9.60;99.90;;;;;;6213785;23;20013;-87
2021/05/10 03:51:17;;;;;;;18.40;3.35;;;9.60;99.90;;;;;;6239779;23;20504;-88
2021/05/10 03:53:43;;;;;;;20.33;3.40;;;9.50;99.90;;;;;;6189335;23;20016;-92
2021/05/10 03:56:10;;;;;;;17.10;2.88;;;9.50;99.90;;;;;;6239429;23;20104;-91
2021/05/10 03:58:39;;;;;;;13.52;3.17;;;9.50;99.90;;;;;;6239722;23;20005;-90
2021/05/10 04:01:07;;;;;;;15.40;3.83;;;9.50;99.90;;;;;;6214289;23;20008;-90
2021/05/10 04:03:39;;;;;;;11.68;2.70;;;9.50;99.90;;;;;;6213902;23;20005;-90
2021/05/10 04:06:28;;;;;;;14.32;3.22;;;9.50;99.90;;;;;;6245635;23;20015;-90
2021/05/10 04:13:55;;;;;;;17.17;3.17;;;9.40;99.90;;;;;;6231955;23;20116;-90
2021/05/10 04:16:25;;;;;;;16.05;3.25;;;9.40;99.90;;;;;;6247222;23;20008;-90
2021/05/10 04:18:51;;;;;;;19.45;3.47;;;9.40;99.90;;;;;;6197617;23;20008;-91
2021/05/10 04:21:16;;;;;;;15.30;3.72;;;9.40;99.90;;;;;;6239115;23;20000;-90
2021/05/10 04:23:42;;;;;;;17.95;4.00;;;9.40;99.90;;;;;;6238599;23;20050;-89
2021/05/10 04:26:08;;;;;;;8.98;3.10;;;9.30;99.90;;;;;;6239271;23;20001;-90
2021/05/10 04:28:36;;;;;;;13.88;3.45;;;9.30;99.90;;;;;;6238706;23;20123;-89
2021/05/10 04:31:02;;;;;;;24.33;3.83;;;9.30;99.90;;;;;;6238461;23;20068;-90
2021/05/10 04:33:32;;;;;;;24.10;3.78;;;9.30;99.90;;;;;;6239347;23;20017;-89
2021/05/10 04:35:59;;;;;;;21.75;4.65;;;9.30;99.90;;;;;;6214962;23;20000;-91
2021/05/10 04:38:26;;;;;;;16.17;3.30;;;9.30;99.90;;;;;;6215240;23;20039;-90
2021/05/10 04:40:56;;;;;;;16.25;2.63;;;9.30;99.90;;;;;;6217069;23;20027;-90
2021/05/10 04:43:22;;;;;;;21.17;3.40;;;9.30;99.90;;;;;;6215333;23;20040;-89
2021/05/10 04:45:48;;;;;;;24.00;3.50;;;9.30;99.90;;;;;;6215377;23;20004;-91
2021/05/10 04:48:16;;;;;;;10.18;2.80;;;9.30;99.90;;;;;;6240673;23;20015;-90
2021/05/10 04:50:42;;;;;;;16.63;2.72;;;9.30;99.90;;;;;;6240726;23;20005;-90
2021/05/10 04:53:11;;;;;;;12.63;3.00;;;9.30;99.90;;;;;;6241088;23;20019;-89
2021/05/10 04:55:43;;;;;;;20.05;3.15;;;9.30;99.90;;;;;;6215353;23;20016;-90
2021/05/10 04:58:09;;;;;;;17.80;2.85;;;9.40;99.90;;;;;;6215595;23;20011;-90
2021/05/10 05:00:34;;;;;;;15.77;3.08;;;9.40;99.90;;;;;;6240664;23;20095;-89
2021/05/10 05:03:02;;;;;;;17.08;3.67;;;9.40;99.90;;;;;;6216096;23;20013;-90
2021/05/10 05:05:29;;;;;;;25.38;3.53;;;9.40;99.90;;;;;;6246116;23;20001;-89
2021/05/10 05:07:55;;;;;;;20.38;4.00;;;9.40;99.90;;;;;;6220256;23;20000;-91
2021/05/10 05:10:25;;;;;;;20.27;3.78;;;9.40;99.90;;;;;;6223819;23;20079;-90
2021/05/10 05:12:51;;;;;;;15.48;3.40;;;9.40;99.90;;;;;;6222886;23;20032;-90
2021/05/10 05:15:18;;;;;;;16.08;4.65;;;9.40;99.90;;;;;;6223795;23;20005;-90
2021/05/10 05:17:44;;;;;;;18.65;3.63;;;9.40;99.90;;;;;;6222281;23;20036;-90
2021/05/10 05:20:11;;;;;;;16.60;3.40;;;9.40;99.90;;;;;;6219714;23;20016;-89
2021/05/10 05:22:37;;;;;;;18.98;4.18;;;9.40;99.90;;;;;;6215710;23;20005;-90
2021/05/10 05:25:07;;;;;;;18.13;3.58;;;9.50;99.90;;;;;;6215502;23;20444;-89
2021/05/10 05:27:34;;;;;;;15.73;4.57;;;9.50;99.90;;;;;;6217274;23;19997;-89
2021/05/10 05:29:59;;;;;;;17.52;3.53;;;9.50;99.90;;;;;;6215330;23;20443;-89
2021/05/10 05:32:25;;;;;;;18.60;3.45;;;9.50;99.90;;;;;;6240566;23;20032;-90
2021/05/10 05:34:51;;;;;;;17.80;3.95;;;9.60;99.90;;;;;;6239498;23;20399;-90
2021/05/10 05:37:19;;;;;;;14.68;3.70;;;9.60;99.90;;;;;;6215430;23;20000;-90
2021/05/10 05:39:45;;;;;;;21.83;4.40;;;9.60;99.90;;;;;;6240761;23;20440;-89
2021/05/10 05:42:11;;;;;;;24.25;4.65;;;9.60;99.90;;;;;;6240186;22;20040;-91
2021/05/10 05:44:38;;;;;;;27.63;3.60;;;9.70;99.90;;;;;;6239854;23;20001;-89
2021/05/10 05:47:05;;;;;;;19.38;3.85;;;9.70;99.90;;;;;;6240687;23;20004;-88
2021/05/10 05:49:34;;;;;;;24.15;3.65;;;9.70;99.90;;;;;;6240098;23;20168;-88
2021/05/10 05:52:02;;;;;;;15.07;4.32;;;9.70;99.90;;;;;;6215232;23;20009;-89
2021/05/10 05:54:29;;;;;;;19.98;4.30;;;9.70;99.90;;;;;;6215180;23;20013;-90
2021/05/10 05:56:55;;;;;;;23.17;3.50;;;9.80;99.90;;;;;;6215922;23;20086;-91
2021/05/10 05:59:20;;;;;;;14.23;3.47;;;9.80;99.90;;;;;;6240571;23;20005;-91
2021/05/10 06:01:47;;;;;;;17.70;3.75;;;9.80;99.90;;;;;;6240866;23;20000;-90
2021/05/10 06:04:13;;;;;;;18.48;3.47;;;9.80;99.90;;;;;;6240943;23;20100;-90
2021/05/10 06:06:40;;;;;;;24.27;3.42;;;9.90;99.90;;;;;;6249677;23;20011;-90
2021/05/10 06:09:10;;;;;;;18.67;3.03;;;9.90;99.90;;;;;;6250964;23;20004;-89
2021/05/10 06:11:36;;;;;;;20.67;3.85;;;9.90;99.90;;;;;;6225889;23;20005;-89
2021/05/10 06:14:03;;;;;;;10.90;2.70;;;9.90;99.90;;;;;;6224490;23;20008;-90
2021/05/10 06:16:30;;;;;;;16.05;3.10;;;10.00;99.90;;;;;;6223239;23;20005;-89
2021/05/10 06:19:04;;;;;;;19.75;2.90;;;10.00;99.90;;;;;;6223916;23;20000;-92
2021/05/10 06:21:30;;;;;;;19.33;3.13;;;10.10;99.90;;;;;;6215785;23;20009;-91
2021/05/10 06:23:55;;;;;;;34.90;5.40;;;10.00;99.90;;;;;;6240376;23;20389;-90
2021/05/10 06:26:21;;;;;;;20.48;3.88;;;10.10;99.90;;;;;;6240653;23;20083;-89
2021/05/10 06:28:50;;;;;;;11.45;2.42;;;10.10;99.90;;;;;;6240387;23;20009;-90
2021/05/10 06:31:21;;;;;;;29.85;4.13;;;10.10;99.90;;;;;;6240588;23;20001;-88
2021/05/10 06:33:48;;;;;;;21.23;2.80;;;10.20;99.90;;;;;;6241201;23;20404;-89
2021/05/10 06:36:15;;;;;;;9.68;2.15;;;10.20;99.90;;;;;;6243716;23;20004;-89
2021/05/10 06:38:42;;;;;;;16.30;2.83;;;10.30;99.90;;;;;;6220388;23;20016;-90
2021/05/10 06:41:12;;;;;;;16.88;3.10;;;10.30;99.90;;;;;;6247978;23;20001;-90
2021/05/10 06:43:40;;;;;;;19.77;3.10;;;10.40;99.90;;;;;;6217260;23;20048;-91
2021/05/10 06:46:25;;;;;;;14.98;2.95;;;10.40;99.90;;;;;;6227521;23;20005;-90
2021/05/10 06:48:51;;;;;;;18.38;3.63;;;10.50;99.90;;;;;;6223149;23;20079;-91
2021/05/10 06:51:20;;;;;;;16.23;3.25;;;10.50;99.90;;;;;;6218180;23;20409;-92
2021/05/10 06:53:46;;;;;;;16.52;3.08;;;10.60;99.90;;;;;;6214480;23;20016;-91
2021/05/10 06:56:12;;;;;;;14.02;2.30;;;10.70;99.90;;;;;;6239766;23;20387;-92
2021/05/10 06:58:41;;;;;;;13.88;2.80;;;10.70;99.90;;;;;;6241231;23;20004;-91
2021/05/10 07:01:06;;;;;;;12.77;2.40;;;10.80;99.90;;;;;;6215690;23;20015;-92
2021/05/10 07:03:38;;;;;;;16.60;2.63;;;10.80;99.90;;;;;;6241817;23;20012;-91
2021/05/10 07:06:09;;;;;;;11.05;3.22;;;10.90;99.90;;;;;;6218243;23;20413;-91
2021/05/10 07:08:54;;;;;;;12.18;2.30;;;10.90;99.90;;;;;;6213767;23;20000;-92
2021/05/10 07:11:20;;;;;;;12.55;2.47;;;10.90;99.90;;;;;;6209560;23;20028;-91
2021/05/10 07:13:46;;;;;;;15.40;2.30;;;10.90;99.90;;;;;;6241131;23;20015;-90
2021/05/10 07:16:11;;;;;;;18.88;2.80;;;10.90;99.90;;;;;;6242074;23;20001;-92
2021/05/10 07:19:03;;;;;;;13.38;2.70;;;10.90;99.90;;;;;;6246367;23;20036;-92
2021/05/10 07:21:34;;;;;;;13.45;2.80;;;10.90;99.90;;;;;;6222469;23;20012;-92
2021/05/10 07:24:00;;;;;;;16.92;3.30;;;10.90;99.90;;;;;;6220977;23;20083;-93
2021/05/10 07:26:26;;;;;;;14.75;2.40;;;11.00;99.90;;;;;;6245124;23;20001;-92
2021/05/10 07:28:53;;;;;;;11.07;2.05;;;11.00;99.90;;;;;;6242828;23;20004;-92
2021/05/10 07:31:20;;;;;;;15.38;2.45;;;11.10;99.90;;;;;;6215578;23;20008;-91
2021/05/10 07:33:46;;;;;;;19.25;2.55;;;11.20;99.90;;;;;;6238716;23;20020;-91
2021/05/10 07:36:11;;;;;;;14.90;2.60;;;11.30;99.90;;;;;;6238631;23;20012;-90
2021/05/10 07:38:37;;;;;;;14.80;1.98;;;11.50;99.90;;;;;;6239207;23;20424;-91
2021/05/10 07:41:04;;;;;;;12.20;2.42;;;11.60;99.90;;;;;;6241000;23;20062;-93
2021/05/10 07:43:33;;;;;;;19.02;3.00;;;11.70;99.90;;;;;;6192273;23;20024;-91
2021/05/10 07:45:59;;;;;;;14.13;1.95;;;11.70;99.90;;;;;;6242214;23;20100;-93
2021/05/10 07:48:25;;;;;;;15.38;2.15;;;11.80;99.90;;;;;;6178963;23;20012;-92
2021/05/10 07:50:51;;;;;;;10.85;2.10;;;11.80;99.90;;;;;;6238798;23;20013;-93
2021/05/10 07:53:16;;;;;;;10.13;2.17;;;11.80;99.90;;;;;;6240245;23;20009;-91
2021/05/10 07:55:45;;;;;;;12.73;2.08;;;11.80;99.90;;;;;;6242164;23;20062;-92
2021/05/10 07:58:12;;;;;;;12.95;2.15;;;11.80;99.90;;;;;;6241681;23;20020;-92
2021/05/10 08:00:42;;;;;;;8.55;2.22;;;11.80;99.90;;;;;;6241927;23;20004;-92
2021/05/10 08:03:10;;;;;;;7.60;2.67;;;11.90;99.90;;;;;;6241348;23;20009;-91
2021/05/10 08:05:37;;;;;;;11.85;2.17;;;11.90;99.90;;;;;;6241540;23;20244;-92
2021/05/10 08:08:07;;;;;;;11.45;2.58;;;11.90;99.90;;;;;;6217631;23;20034;-91
2021/05/10 08:10:33;;;;;;;13.05;2.20;;;12.00;99.90;;;;;;6194486;23;20006;-91
2021/05/10 08:13:00;;;;;;;6.80;2.20;;;12.10;99.90;;;;;;6217226;23;20139;-92
2021/05/10 08:15:26;;;;;;;11.20;2.38;;;12.20;99.90;;;;;;6217291;23;20030;-91
2021/05/10 08:17:52;;;;;;;8.85;1.58;;;12.20;99.90;;;;;;6246719;23;20087;-92
2021/05/10 08:20:21;;;;;;;8.25;1.98;;;12.20;99.90;;;;;;6247178;23;20091;-91
2021/05/10 08:22:47;;;;;;;13.73;2.58;;;12.20;99.90;;;;;;6249234;23;20056;-92
2021/05/10 08:25:14;;;;;;;10.25;1.70;;;12.20;99.90;;;;;;6222333;23;20016;-92
2021/05/10 08:27:42;;;;;;;6.75;1.98;;;12.30;99.90;;;;;;6222096;23;19996;-93
2021/05/10 08:30:11;;;;;;;11.02;2.03;;;12.40;99.90;;;;;;6249474;23;20005;-92
2021/05/10 08:32:40;;;;;;;13.40;1.80;;;12.60;99.90;;;;;;6221899;23;20067;-93
2021/05/10 08:35:09;;;;;;;11.60;2.78;;;12.90;99.90;;;;;;6217889;23;20013;-92
2021/05/10 08:37:34;;;;;;;9.45;1.88;;;12.90;99.90;;;;;;6217325;23;20075;-93
2021/05/10 08:40:04;;;;;;;9.80;1.90;;;12.90;99.90;;;;;;6241548;23;20005;-90
2021/05/10 08:42:30;;;;;;;6.10;1.42;;;12.80;99.90;;;;;;6219589;23;20044;-91
2021/05/10 08:45:00;;;;;;;5.63;1.95;;;12.70;99.90;;;;;;6248810;23;20371;-92
2021/05/10 08:47:33;;;;;;;9.02;1.50;;;12.60;99.90;;;;;;6223597;23;20004;-93
2021/05/10 08:50:05;;;;;;;10.73;1.92;;;12.50;99.90;;;;;;6224791;23;20004;-94
2021/05/10 08:52:35;;;;;;;7.45;1.70;;;12.50;99.90;;;;;;6219099;23;20261;-92
2021/05/10 08:55:01;;;;;;;8.95;1.75;;;12.40;99.90;;;;;;6221317;23;20012;-94
2021/05/10 08:57:29;;;;;;;11.93;2.50;;;12.40;99.90;;;;;;6221321;23;20005;-93
2021/05/10 08:59:55;;;;;;;10.25;1.88;;;12.40;99.90;;;;;;6246271;23;20015;-93
2021/05/10 09:02:37;;;;;;;12.80;1.92;;;12.40;99.90;;;;;;6253440;23;20004;-93
2021/05/10 09:05:20;;;;;;;11.10;2.60;;;12.50;99.90;;;;;;6253310;23;20012;-92
2021/05/10 09:08:14;;;;;;;7.28;1.60;;;12.50;99.90;;;;;;6226404;23;20000;-92
2021/05/10 09:10:40;;;;;;;8.05;1.48;;;12.50;99.90;;;;;;6213863;23;20462;-93
2021/05/10 09:13:07;;;;;;;5.18;1.88;;;12.50;99.90;;;;;;6226474;23;20084;-92
2021/05/10 09:15:37;;;;;;;6.72;1.30;;;12.50;99.90;;;;;;6251261;23;20000;-91
2021/05/10 09:18:08;;;;;;;7.88;1.52;;;12.50;99.90;;;;;;6250841;23;20008;-93
2021/05/10 09:20:40;;;;;;;5.60;1.77;;;12.60;99.90;;;;;;6224281;23;20000;-94
2021/05/10 09:23:13;;;;;;;7.45;1.60;;;12.70;99.90;;;;;;6197268;23;20332;-91
2021/05/10 09:25:44;;;;;;;6.68;1.40;;;12.80;99.90;;;;;;6248460;23;20009;-91
2021/05/10 09:28:24;;;;;;;10.98;2.05;;;12.80;99.90;;;;;;6217867;23;20008;-90
2021/05/10 09:30:55;;;;;;;6.60;1.67;;;12.80;99.90;;;;;;6220844;23;20145;-90
2021/05/10 09:33:23;;;;;;;;;;;12.80;99.90;;;;;;6222071;23;20054;-91
2021/05/10 09:35:55;;;;;;;9.10;1.25;;;12.80;99.90;;;;;;6218395;23;19911;-91
2021/05/10 09:38:24;;;;;;;6.07;1.27;;;12.80;99.90;;;;;;6195965;23;20099;-90
2021/05/10 09:41:01;;;;;;;6.65;1.38;;;12.90;99.90;;;;;;6223417;23;20198;-90
2021/05/10 09:43:36;;;;;;;4.82;1.08;;;12.80;99.90;;;;;;6202700;23;20101;-90
2021/05/10 09:46:26;;;;;;;5.65;1.20;;;12.90;99.90;;;;;;6226935;23;20023;-90
2021/05/10 09:49:01;;;;;;;9.32;1.52;;;13.10;99.90;;;;;;6223414;23;20008;-91
2021/05/10 09:51:51;;;;;;;8.93;1.02;;;13.30;99.90;;;;;;6225878;23;20054;-91
2021/05/10 09:54:20;;;;;;;12.70;1.70;;;13.60;99.90;;;;;;6225474;23;20015;-92
2021/05/10 09:57:01;;;;;;;9.68;1.42;;;13.80;99.70;;;;;;6197641;23;20016;-93
2021/05/10 09:59:28;;;;;;;5.25;1.00;;;13.90;98.90;;;;;;6200122;23;20005;-91
2021/05/10 10:01:55;;;;;;;11.55;2.05;;;13.90;97.80;;;;;;6247058;23;20138;-91
2021/05/10 10:04:20;;;;;;;9.30;1.25;;;13.90;97.80;;;;;;6247260;23;20002;-92
2021/05/10 10:06:49;;;;;;;9.77;1.50;;;13.80;97.20;;;;;;6248130;23;20420;-92
2021/05/10 10:09:15;;;;;;;8.15;1.27;;;13.80;96.70;;;;;;6246704;23;20468;-92
2021/05/10 10:11:42;;;;;;;5.07;1.30;;;13.80;96.90;;;;;;6226758;23;20004;-93
2021/05/10 10:14:13;;;;;;;6.88;1.38;;;13.90;96.70;;;;;;6227412;23;20012;-92
2021/05/10 10:16:39;;;;;;;;;;;14.10;96.10;;;;;;6251630;23;20004;-92
2021/05/10 10:19:06;;;;;;;7.38;0.95;;;14.10;95.50;;;;;;6226712;23;20204;-91
2021/05/10 10:21:35;;;;;;;7.90;1.10;;;14.10;94.60;;;;;;6229200;23;20004;-92
2021/05/10 10:24:06;;;;;;;3.60;0.90;;;14.10;94.40;;;;;;6228393;23;20015;-91
2021/05/10 10:26:37;;;;;;;6.93;1.23;;;14.00;93.90;;;;;;6224198;23;20459;-91
2021/05/10 10:29:07;;;;;;;;;;;14.00;93.50;;;;;;6221459;23;20194;-90
2021/05/10 10:31:38;;;;;;;8.30;1.20;;;14.00;93.20;;;;;;6218822;23;19900;-91
2021/05/10 10:34:14;;;;;;;;;;;13.90;93.30;;;;;;6221445;23;20037;-91
2021/05/10 10:36:52;;;;;;;7.40;0.98;;;13.90;93.90;;;;;;6220129;23;20339;-91
2021/05/10 10:39:22;;;;;;;4.93;1.13;;;13.80;94.10;;;;;;6220368;23;20024;-90
2021/05/10 10:42:12;;;;;;;10.43;1.60;;;14.00;94.50;;;;;;6224964;23;20011;-91
2021/05/10 10:44:52;;;;;;;3.85;1.00;;;14.00;94.70;;;;;;6228748;23;20016;-91
2021/05/10 10:47:44;;;;;;;5.07;1.50;;;14.10;94.90;;;;;;6224255;23;20012;-95
2021/05/10 10:50:30;;;;;;;4.72;1.10;;;14.40;95.00;;;;;;6226399;23;20335;-93
2021/05/10 10:53:00;;;;;;;4.15;1.10;;;14.60;94.00;;;;;;6258401;23;20008;-93
2021/05/10 10:55:33;;;;;;;4.65;1.02;;;14.80;93.70;;;;;;6235293;23;20008;-92
2021/05/10 10:58:18;;;;;;;4.95;1.00;;;15.10;93.30;;;;;;6233489;23;20014;-93
2021/05/10 11:00:56;;;;;;;4.00;1.20;;;15.40;93.20;;;;;;6232249;23;20011;-92
2021/05/10 11:03:23;;;;;;;4.75;0.70;;;15.70;92.50;;;;;;6232609;23;20008;-91
2021/05/10 11:05:49;;;;;;;6.13;0.90;;;16.00;91.90;;;;;;6232538;23;20483;-92
2021/05/10 11:08:14;;;;;;;6.68;1.10;;;16.10;91.70;;;;;;6255774;23;20004;-93
2021/05/10 11:10:51;;;;;;;4.63;0.82;;;16.30;91.30;;;;;;6224136;23;20034;-91
2021/05/10 11:13:29;;;;;;;6.88;1.20;;;16.50;91.60;;;;;;6222928;23;20036;-92
2021/05/10 11:15:56;;;;;;;3.95;0.95;;;16.70;91.50;;;;;;6222778;23;20011;-91
2021/05/10 11:18:39;;;;;;;5.72;1.02;;;17.00;91.20;;;;;;6223003;23;20018;-92
2021/05/10 11:21:29;;;;;;;5.20;1.05;;;17.10;90.70;;;;;;6222821;23;20000;-94
2021/05/10 11:24:01;;;;;;;3.75;1.17;;;17.40;90.20;;;;;;6221284;23;20300;-93
2021/05/10 11:26:46;;;;;;;3.08;0.85;;;17.50;84.80;;;;;;6221407;23;20008;-93
2021/05/10 11:29:24;;;;;;;8.18;1.05;;;17.40;81.00;;;;;;6236612;23;20032;-92
2021/05/10 11:31:58;;;;;;;3.30;0.82;;;17.30;80.60;;;;;;6228257;23;20012;-93
2021/05/10 11:34:37;;;;;;;4.43;1.00;;;17.30;80.60;;;;;;6227484;23;20046;-94
2021/05/10 11:37:05;;;;;;;3.50;0.80;;;17.20;80.10;;;;;;6210303;23;20042;-91
2021/05/10 11:39:41;;;;;;;4.10;0.90;;;17.10;80.90;;;;;;6227864;23;20004;-92
2021/05/10 11:44:45;;;;;;;5.18;1.00;;;16.80;80.20;;;;;;6200751;22;20023;-92
2021/05/10 11:47:29;;;;;;;1.85;0.60;;;16.60;80.70;;;;;;6237248;22;20028;-92
2021/05/10 11:50:02;;;;;;;4.03;0.65;;;16.30;81.20;;;;;;6243497;23;20508;-95
2021/05/10 11:52:30;;;;;;;4.20;0.70;;;15.90;82.00;;;;;;6246022;23;20054;-95
2021/05/10 11:54:57;;;;;;;2.60;0.63;;;15.40;85.20;;;;;;6245638;23;20090;-95
2021/05/10 11:57:32;;;;;;;2.00;0.45;;;14.90;88.60;;;;;;6220274;23;20004;-94
2021/05/10 12:00:02;;;;;;;2.40;0.38;;;14.50;90.50;;;;;;6221253;23;20080;-93
2021/05/10 12:02:32;;;;;;;4.25;0.40;;;14.50;92.10;;;;;;6196942;23;20008;-94
2021/05/10 12:05:13;;;;;;;2.00;0.63;;;14.60;93.10;;;;;;6221782;23;20024;-93
2021/05/10 12:07:43;;;;;;;0.70;0.40;;;15.00;94.20;;;;;;6198074;23;20094;-93
2021/05/10 12:10:12;;;;;;;1.70;0.65;;;15.50;93.90;;;;;;6245387;23;19997;-94
2021/05/10 12:12:40;;;;;;;1.20;0.22;;;15.90;93.50;;;;;;6225299;23;20016;-94
2021/05/10 12:15:25;;;;;;;1.17;0.38;;;16.30;93.00;;;;;;6235576;23;20008;-93
2021/05/10 12:17:54;;;;;;;1.50;0.47;;;16.60;92.50;;;;;;6237124;23;20000;-93
2021/05/10 12:20:23;;;;;;;1.92;0.50;;;16.70;91.80;;;;;;6233773;23;20039;-93
2021/05/10 12:23:05;;;;;;;3.03;0.50;;;16.60;91.60;;;;;;6233444;23;20032;-93
2021/05/10 12:25:36;;;;;;;2.08;0.60;;;16.40;91.30;;;;;;6233554;23;20012;-94
2021/05/10 12:28:08;;;;;;;3.47;0.77;;;16.10;91.30;;;;;;6233668;23;20026;-92
2021/05/10 12:30:43;;;;;;;4.70;0.80;;;16.10;91.60;;;;;;6232998;23;20008;-92
2021/05/10 12:33:15;;;;;;;4.72;0.95;;;16.20;92.30;;;;;;6230833;23;20012;-94
2021/05/10 12:36:02;;;;;;;1.92;0.60;;;16.20;91.70;;;;;;6229631;23;20435;-94
2021/05/10 12:38:37;;;;;;;3.85;0.75;;;16.20;91.50;;;;;;6228395;23;20011;-94
2021/05/10 12:41:09;;;;;;;8.45;0.93;;;16.10;90.90;;;;;;6227429;23;20038;-94
2021/05/10 12:43:45;;;;;;;3.28;0.82;;;16.20;91.80;;;;;;6227767;23;20032;-93
2021/05/10 12:46:11;;;;;;;2.83;0.70;;;16.30;91.10;;;;;;6217561;23;20025;-96
2021/05/10 12:48:43;;;;;;;6.05;1.20;;;16.20;90.80;;;;;;6190258;23;20368;-93
2021/05/10 12:51:11;;;;;;;8.15;0.82;;;16.10;90.30;;;;;;6188788;23;20019;-94
2021/05/10 12:53:46;;;;;;;4.57;0.70;;;15.90;90.80;;;;;;6189692;23;20068;-91
2021/05/10 12:56:16;;;;;;;4.57;0.70;;;15.60;90.20;;;;;;6217352;23;20015;-93
2021/05/10 12:58:43;;;;;;;1.33;1.20;;;15.30;89.80;;;;;;6196431;23;20428;-93
2021/05/10 13:01:18;;;;;;;1.83;0.30;;;15.00;90.50;;;;;;6194181;23;20404;-93
2021/05/10 13:03:48;;;;;;;3.75;0.60;;;14.80;90.90;;;;;;6190371;23;20012;-91
2021/05/10 13:06:21;;;;;;;2.38;0.50;;;14.70;91.20;;;;;;6214145;23;20040;-94